createdAt,value
2018-09-26T00:02:28.907Z,67.84
2018-09-26T00:04:58.542Z,68.23
2018-09-26T00:07:28.037Z,68.39
2018-09-26T00:09:57.539Z,68.56
2018-09-26T00:12:27.038Z,68.33
2018-09-26T00:14:56.578Z,68.38
2018-09-26T00:17:26.214Z,68.40
2018-09-26T00:19:55.749Z,68.08
2018-09-26T00:22:25.339Z,67.27
2018-09-26T00:24:54.861Z,67.31
2018-09-26T00:27:24.398Z,66.94
2018-09-26T00:29:54.146Z,67.25
2018-09-26T00:32:23.627Z,66.96
2018-09-26T00:34:53.154Z,66.88
2018-09-26T00:37:22.695Z,67.19
2018-09-26T00:39:52.175Z,66.93
2018-09-26T00:42:21.752Z,66.59
2018-09-26T00:44:51.282Z,66.83
2018-09-26T00:47:20.842Z,66.46
2018-09-26T00:49:50.354Z,66.82
2018-09-26T00:52:19.900Z,65.51
2018-09-26T00:54:49.486Z,66.04
2018-09-26T00:57:19.183Z,65.96
2018-09-26T00:59:48.743Z,65.42
2018-09-26T01:02:18.265Z,65.63
2018-09-26T01:04:47.842Z,65.36
2018-09-26T01:07:18.415Z,65.47
2018-09-26T01:09:48.047Z,65.56
2018-09-26T01:12:17.583Z,64.94
2018-09-26T01:14:47.654Z,65.58
2018-09-26T01:17:17.168Z,65.03
2018-09-26T01:19:46.752Z,65.27
2018-09-26T01:22:16.284Z,65.15
2018-09-26T01:24:45.807Z,64.55
2018-09-26T01:27:15.336Z,64.94
2018-09-26T01:29:44.837Z,64.66
2018-09-26T01:32:14.458Z,65.39
2018-09-26T01:34:44.047Z,65.28
2018-09-26T01:37:13.569Z,65.04
2018-09-26T01:39:43.080Z,64.95
2018-09-26T01:42:12.561Z,65.39
2018-09-26T01:44:42.059Z,65.56
2018-09-26T01:47:11.554Z,65.64
2018-09-26T01:49:41.090Z,65.48
2018-09-26T01:52:10.583Z,65.69
2018-09-26T01:54:40.242Z,65.80
2018-09-26T01:57:10.950Z,66.01
2018-09-26T01:59:40.462Z,65.75
2018-09-26T02:02:10.034Z,66.17
2018-09-26T02:04:39.530Z,66.14
2018-09-26T02:07:09.006Z,66.16
2018-09-26T02:09:38.542Z,66.11
2018-09-26T02:12:09.128Z,66.24
2018-09-26T02:14:38.605Z,66.39
2018-09-26T02:17:08.118Z,66.61
2018-09-26T02:19:37.639Z,66.41
2018-09-26T02:22:07.195Z,66.63
2018-09-26T02:24:37.861Z,66.66
2018-09-26T02:27:07.947Z,66.57
2018-09-26T02:29:37.496Z,67.23
2018-09-26T02:32:07.203Z,66.94
2018-09-26T02:34:36.792Z,67.42
2018-09-26T02:37:08.593Z,67.56
2018-09-26T02:39:39.534Z,67.22
2018-09-26T02:42:09.122Z,67.44
2018-09-26T02:44:38.632Z,67.20
2018-09-26T02:47:08.473Z,66.71
2018-09-26T02:49:38.047Z,66.73
2018-09-26T02:52:08.259Z,66.82
2018-09-26T02:54:37.741Z,66.89
2018-09-26T02:57:07.422Z,66.83
2018-09-26T02:59:36.958Z,67.03
2018-09-26T03:02:06.961Z,67.58
2018-09-26T03:04:36.462Z,67.47
2018-09-26T03:07:05.941Z,67.59
2018-09-26T03:09:35.444Z,67.79
2018-09-26T03:12:04.945Z,67.78
2018-09-26T03:14:34.439Z,67.59
2018-09-26T03:17:03.959Z,67.64
2018-09-26T03:19:33.508Z,67.72
2018-09-26T03:22:03.020Z,67.66
2018-09-26T03:24:32.551Z,67.55
2018-09-26T03:27:02.055Z,67.73
2018-09-26T03:29:31.602Z,67.38
2018-09-26T03:32:01.330Z,66.99
2018-09-26T03:34:30.831Z,67.10
2018-09-26T03:37:00.333Z,66.97
2018-09-26T03:39:30.032Z,66.94
2018-09-26T03:41:59.551Z,66.86
2018-09-26T03:44:29.161Z,66.68
2018-09-26T03:46:58.665Z,66.60
2018-09-26T03:49:28.428Z,66.52
2018-09-26T03:51:57.981Z,66.02
2018-09-26T03:54:27.493Z,66.25
2018-09-26T03:56:57.080Z,66.85
2018-09-26T03:59:26.944Z,66.58
2018-09-26T04:01:56.770Z,66.58
2018-09-26T04:04:26.367Z,66.94
2018-09-26T04:06:56.684Z,67.04
2018-09-26T04:09:26.309Z,67.54
2018-09-26T04:11:55.801Z,67.64
2018-09-26T04:14:25.400Z,67.74
2018-09-26T04:16:54.979Z,68.46
2018-09-26T04:19:24.513Z,68.43
2018-09-26T04:21:54.003Z,68.95
2018-09-26T04:24:23.513Z,69.04
2018-09-26T04:26:53.196Z,69.25
2018-09-26T04:29:22.802Z,69.27
2018-09-26T04:31:52.421Z,69.65
2018-09-26T04:34:21.946Z,69.50
2018-09-26T04:36:51.448Z,69.59
2018-09-26T04:39:20.980Z,69.52
2018-09-26T04:41:50.505Z,69.34
2018-09-26T04:44:20.057Z,69.38
2018-09-26T04:46:49.575Z,69.69
2018-09-26T04:49:19.090Z,69.73
2018-09-26T04:51:48.623Z,69.66
2018-09-26T04:54:18.161Z,68.79
2018-09-26T04:56:47.629Z,69.21
2018-09-26T04:59:17.198Z,69.03
2018-09-26T05:01:46.708Z,69.57
2018-09-26T05:04:16.178Z,69.48
2018-09-26T05:06:45.717Z,69.78
2018-09-26T05:09:15.390Z,69.89
2018-09-26T05:11:44.910Z,70.00
2018-09-26T05:14:14.448Z,69.52
2018-09-26T05:16:44.131Z,69.75
2018-09-26T05:19:14.075Z,70.29
2018-09-26T05:21:43.635Z,70.01
2018-09-26T05:24:13.216Z,70.08
2018-09-26T05:26:42.730Z,70.10
2018-09-26T05:29:12.250Z,69.81
2018-09-26T05:31:42.250Z,70.86
2018-09-26T05:34:12.329Z,70.71
2018-09-26T05:36:41.866Z,71.12
2018-09-26T05:39:12.622Z,71.12
2018-09-26T05:41:42.240Z,71.10
2018-09-26T05:44:12.053Z,71.15
2018-09-26T05:46:41.976Z,70.91
2018-09-26T05:49:11.577Z,70.55
2018-09-26T05:51:41.186Z,70.50
2018-09-26T05:54:10.780Z,70.24
2018-09-26T05:56:40.304Z,70.39
2018-09-26T05:59:09.824Z,70.24
2018-09-26T06:01:39.446Z,69.09
2018-09-26T06:04:09.116Z,69.47
2018-09-26T06:06:38.853Z,68.55
2018-09-26T06:09:11.701Z,68.27
2018-09-26T06:11:41.582Z,66.50
2018-09-26T06:14:12.251Z,66.54
2018-09-26T06:16:41.795Z,65.63
2018-09-26T06:19:11.760Z,64.86
2018-09-26T06:21:41.267Z,64.61
2018-09-26T06:24:10.875Z,64.56
2018-09-26T06:26:40.467Z,63.37
2018-09-26T06:29:10.087Z,62.87
2018-09-26T06:31:39.619Z,61.25
2018-09-26T06:34:09.232Z,61.66
2018-09-26T06:36:38.749Z,60.92
2018-09-26T06:39:11.923Z,59.88
2018-09-26T06:41:42.525Z,59.67
2018-09-26T06:44:12.070Z,59.70
2018-09-26T06:46:41.561Z,58.83
2018-09-26T06:49:11.147Z,58.64
2018-09-26T06:51:40.656Z,58.46
2018-09-26T06:54:10.229Z,57.93
2018-09-26T06:56:39.913Z,57.89
2018-09-26T06:59:09.413Z,56.81
2018-09-26T07:01:38.954Z,57.14
2018-09-26T07:04:08.492Z,55.70
2018-09-26T07:06:38.005Z,56.39
2018-09-26T07:09:09.246Z,56.86
2018-09-26T07:11:39.266Z,56.06
2018-09-26T07:14:09.133Z,55.51
2018-09-26T07:16:38.671Z,55.93
2018-09-26T07:19:08.270Z,55.43
2018-09-26T07:21:37.896Z,55.14
2018-09-26T07:24:09.093Z,55.33
2018-09-26T07:26:38.947Z,55.68
2018-09-26T07:29:08.469Z,54.43
2018-09-26T07:31:38.089Z,54.34
2018-09-26T07:34:07.994Z,54.70
2018-09-26T07:36:37.794Z,53.21
2018-09-26T07:39:10.558Z,53.88
2018-09-26T07:41:40.270Z,54.40
2018-09-26T07:44:09.825Z,54.08
2018-09-26T07:46:39.734Z,54.20
2018-09-26T07:49:10.711Z,53.72
2018-09-26T07:51:40.233Z,53.79
2018-09-26T07:54:09.737Z,53.42
2018-09-26T07:56:39.258Z,52.69
2018-09-26T07:59:09.047Z,52.97
2018-09-26T08:01:38.763Z,51.60
2018-09-26T08:04:08.394Z,51.81
2018-09-26T08:06:38.954Z,52.75
2018-09-26T08:09:09.675Z,52.84
2018-09-26T08:11:39.301Z,52.99
2018-09-26T08:14:09.212Z,51.41
2018-09-26T08:16:38.768Z,51.47
2018-09-26T08:19:09.026Z,51.06
2018-09-26T08:21:38.615Z,51.42
2018-09-26T08:24:08.704Z,51.05
2018-09-26T08:26:38.299Z,50.55
2018-09-26T08:29:08.030Z,50.24
2018-09-26T08:31:37.535Z,49.19
2018-09-26T08:34:07.605Z,49.20
2018-09-26T08:36:37.080Z,48.56
2018-09-26T08:39:11.568Z,48.36
2018-09-26T08:41:41.615Z,49.31
2018-09-26T08:44:11.926Z,49.61
2018-09-26T08:46:41.708Z,49.05
2018-09-26T08:49:11.239Z,50.07
2018-09-26T08:51:40.758Z,50.36
2018-09-26T08:54:10.281Z,50.16
2018-09-26T08:56:39.793Z,49.16
2018-09-26T08:59:09.603Z,48.82
2018-09-26T09:01:45.832Z,47.12
2018-09-26T09:04:16.458Z,47.31
2018-09-26T09:06:46.776Z,47.33
2018-09-26T09:09:16.374Z,46.93
2018-09-26T09:11:45.943Z,47.50
2018-09-26T09:14:15.702Z,46.12
2018-09-26T09:16:45.572Z,46.50
2018-09-26T09:19:15.137Z,46.44
2018-09-26T09:21:45.023Z,46.50
2018-09-26T09:24:14.597Z,46.92
2018-09-26T09:26:44.194Z,46.54
2018-09-26T09:29:13.697Z,47.04
2018-09-26T09:31:43.226Z,47.67
2018-09-26T09:34:12.774Z,47.12
2018-09-26T09:36:42.460Z,47.64
2018-09-26T09:39:12.107Z,47.29
2018-09-26T09:41:41.667Z,47.42
2018-09-26T09:44:11.277Z,46.96
2018-09-26T09:46:41.386Z,45.10
2018-09-26T09:49:10.925Z,45.65
2018-09-26T09:51:40.554Z,44.81
2018-09-26T09:54:10.294Z,45.88
2018-09-26T09:56:39.826Z,46.57
2018-09-26T09:59:09.362Z,45.30
2018-09-26T10:01:38.885Z,46.40
2018-09-26T10:04:08.816Z,45.90
2018-09-26T10:06:38.413Z,45.94
2018-09-26T10:09:08.458Z,46.09
2018-09-26T10:11:37.974Z,45.70
2018-09-26T10:14:07.560Z,47.36
2018-09-26T10:16:37.453Z,46.47
2018-09-26T10:19:07.784Z,45.24
2018-09-26T10:21:37.489Z,45.53
2018-09-26T10:24:07.352Z,44.84
2018-09-26T10:26:36.983Z,45.36
2018-09-26T10:29:06.560Z,46.09
2018-09-26T10:31:36.107Z,46.25
2018-09-26T10:34:05.998Z,45.71
2018-09-26T10:36:35.533Z,45.41
2018-09-26T10:39:07.002Z,44.00
2018-09-26T10:41:36.878Z,43.73
2018-09-26T10:44:07.056Z,43.50
2018-09-26T10:46:36.777Z,44.01
2018-09-26T10:49:06.496Z,44.55
2018-09-26T10:51:35.987Z,43.97
2018-09-26T10:54:06.207Z,43.69
2018-09-26T10:56:35.866Z,44.05
2018-09-26T10:59:05.520Z,43.54
2018-09-26T11:01:35.246Z,42.13
2018-09-26T11:04:04.820Z,43.44
2018-09-26T11:06:34.551Z,43.43
2018-09-26T11:09:05.033Z,41.64
2018-09-26T11:11:34.688Z,42.40
2018-09-26T11:14:04.554Z,42.38
2018-09-26T11:16:34.071Z,42.00
2018-09-26T11:19:03.571Z,42.93
2018-09-26T11:21:33.347Z,42.59
2018-09-26T11:24:03.510Z,41.92
2018-09-26T11:26:33.047Z,41.90
2018-09-26T11:29:02.779Z,42.23
2018-09-26T11:31:32.339Z,42.42
2018-09-26T11:34:01.946Z,42.83
2018-09-26T11:36:31.487Z,42.26
2018-09-26T11:39:01.027Z,42.26
2018-09-26T11:41:30.570Z,42.49
2018-09-26T11:44:00.133Z,41.70
2018-09-26T11:46:29.684Z,41.50
2018-09-26T11:48:59.226Z,42.56
2018-09-26T11:51:28.731Z,42.57
2018-09-26T11:53:58.287Z,41.80
2018-09-26T11:56:27.879Z,41.35
2018-09-26T11:58:57.549Z,42.94
2018-09-26T12:01:27.082Z,42.23
2018-09-26T12:03:56.583Z,40.37
2018-09-26T12:06:26.470Z,41.00
2018-09-26T12:08:55.957Z,40.77
2018-09-26T12:11:25.573Z,40.70
2018-09-26T12:13:55.100Z,40.28
2018-09-26T12:16:24.927Z,40.54
2018-09-26T12:18:54.665Z,41.52
2018-09-26T12:21:30.445Z,40.99
2018-09-26T12:23:54.199Z,41.12
2018-09-26T12:26:23.756Z,41.59
2018-09-26T12:28:53.307Z,40.57
2018-09-26T12:31:22.898Z,41.06
2018-09-26T12:33:52.439Z,38.45
2018-09-26T12:36:22.007Z,39.56
2018-09-26T12:38:52.154Z,39.57
2018-09-26T12:41:21.703Z,39.62
2018-09-26T12:43:51.213Z,40.04
2018-09-26T12:46:20.764Z,39.56
2018-09-26T12:48:50.528Z,39.55
2018-09-26T12:51:20.066Z,38.59
2018-09-26T12:53:49.741Z,38.54
2018-09-26T12:56:19.341Z,39.26
2018-09-26T12:58:48.891Z,37.96
2018-09-26T13:01:18.443Z,37.45
2018-09-26T13:03:48.023Z,38.04
2018-09-26T13:06:17.741Z,37.34
2018-09-26T13:08:47.370Z,38.11
2018-09-26T13:11:16.979Z,37.14
2018-09-26T13:13:46.538Z,37.06
2018-09-26T13:16:16.144Z,37.70
2018-09-26T13:18:45.925Z,35.93
2018-09-26T13:21:15.707Z,36.04
2018-09-26T13:23:45.284Z,35.55
2018-09-26T13:26:14.828Z,35.45
2018-09-26T13:28:44.689Z,34.21
2018-09-26T13:31:14.262Z,32.54
2018-09-26T13:33:43.971Z,33.81
2018-09-26T13:36:13.554Z,33.68
2018-09-26T13:38:43.414Z,34.03
2018-09-26T13:41:12.962Z,35.15
2018-09-26T13:43:42.627Z,32.67
2018-09-26T13:46:12.222Z,32.02
2018-09-26T13:48:42.400Z,32.27
2018-09-26T13:51:11.913Z,32.12
2018-09-26T13:53:41.443Z,32.13
2018-09-26T13:56:11.014Z,32.18
2018-09-26T13:58:40.729Z,33.34
2018-09-26T14:01:10.245Z,33.34
2018-09-26T14:03:39.763Z,34.29
2018-09-26T14:06:09.339Z,33.74
2018-09-26T14:08:38.997Z,33.36
2018-09-26T14:11:08.634Z,33.05
2018-09-26T14:13:38.155Z,32.02
2018-09-26T14:16:07.778Z,33.12
2018-09-26T14:18:37.297Z,33.47
2018-09-26T14:21:07.085Z,33.68
2018-09-26T14:23:36.660Z,33.43
2018-09-26T14:26:06.711Z,33.58
2018-09-26T14:28:36.418Z,32.73
2018-09-26T14:31:06.509Z,32.83
2018-09-26T14:33:36.302Z,32.76
2018-09-26T14:36:06.069Z,32.51
2018-09-26T14:38:36.215Z,32.30
2018-09-26T14:41:05.802Z,32.40
2018-09-26T14:43:35.656Z,32.07
2018-09-26T14:46:05.198Z,33.34
2018-09-26T14:48:35.127Z,33.44
2018-09-26T14:51:04.767Z,31.61
2018-09-26T14:53:34.644Z,32.09
2018-09-26T14:56:04.560Z,33.36
2018-09-26T14:58:34.175Z,33.68
2018-09-26T15:01:03.931Z,33.04
2018-09-26T15:03:33.625Z,33.71
2018-09-26T15:06:03.562Z,32.92
2018-09-26T15:08:33.077Z,33.77
2018-09-26T15:11:02.912Z,33.38
2018-09-26T15:13:32.868Z,34.72
2018-09-26T15:16:02.381Z,34.62
2018-09-26T15:18:31.882Z,34.52
2018-09-26T15:21:01.460Z,33.64
2018-09-26T15:23:31.005Z,33.99
2018-09-26T15:26:00.826Z,34.34
2018-09-26T15:28:30.416Z,34.08
2018-09-26T15:31:00.073Z,35.01
2018-09-26T15:33:29.656Z,34.86
2018-09-26T15:35:59.140Z,34.04
2018-09-26T15:38:28.679Z,34.16
2018-09-26T15:40:58.299Z,34.62
2018-09-26T15:43:27.874Z,35.62
2018-09-26T15:45:57.465Z,34.89
2018-09-26T15:48:27.103Z,35.44
2018-09-26T15:50:56.829Z,35.32
2018-09-26T15:53:26.519Z,35.63
2018-09-26T15:55:58.989Z,36.35
2018-09-26T15:58:28.558Z,36.07
2018-09-26T16:00:58.163Z,35.94
2018-09-26T16:03:27.700Z,36.86
2018-09-26T16:05:57.222Z,35.70
2018-09-26T16:08:26.815Z,36.64
2018-09-26T16:10:56.549Z,37.42
2018-09-26T16:13:26.294Z,36.34
2018-09-26T16:15:55.846Z,36.97
2018-09-26T16:18:25.440Z,37.42
2018-09-26T16:20:55.127Z,37.29
2018-09-26T16:23:24.667Z,36.97
2018-09-26T16:25:54.220Z,37.31
2018-09-26T16:28:24.142Z,37.89
2018-09-26T16:30:53.807Z,38.51
2018-09-26T16:33:23.416Z,38.25
2018-09-26T16:35:52.932Z,38.51
2018-09-26T16:38:24.338Z,39.02
2018-09-26T16:40:55.195Z,38.40
2018-09-26T16:43:24.784Z,38.33
2018-09-26T16:45:54.598Z,38.63
2018-09-26T16:48:24.219Z,39.21
2018-09-26T16:50:53.885Z,39.36
2018-09-26T16:53:23.465Z,39.41
2018-09-26T16:55:52.992Z,39.86
2018-09-26T16:58:22.602Z,39.84
2018-09-26T17:00:52.567Z,40.60
2018-09-26T17:03:22.084Z,41.57
2018-09-26T17:05:51.655Z,41.37
2018-09-26T17:08:21.166Z,41.65
2018-09-26T17:10:50.942Z,42.29
2018-09-26T17:13:20.472Z,42.87
2018-09-26T17:15:50.447Z,42.87
2018-09-26T17:18:20.151Z,43.62
2018-09-26T17:20:50.504Z,43.71
2018-09-26T17:23:24.094Z,43.86
2018-09-26T17:25:56.736Z,44.23
2018-09-26T17:28:29.385Z,45.21
2018-09-26T17:31:02.634Z,45.38
2018-09-26T17:33:35.148Z,46.03
2018-09-26T17:36:07.197Z,45.49
2018-09-26T17:38:40.271Z,45.98
2018-09-26T17:41:13.390Z,46.04
2018-09-26T17:43:46.287Z,46.56
2018-09-26T17:46:19.633Z,45.65
2018-09-26T17:48:49.940Z,46.14
2018-09-26T17:51:22.940Z,46.76
2018-09-26T17:53:55.736Z,46.52
2018-09-26T17:56:28.453Z,47.01
2018-09-26T17:58:58.745Z,47.47
2018-09-26T18:01:32.311Z,46.78
2018-09-26T18:04:04.716Z,46.73
2018-09-26T18:06:37.469Z,47.07
2018-09-26T18:09:12.847Z,47.24
2018-09-26T18:11:47.191Z,47.18
2018-09-26T18:14:20.417Z,47.46
2018-09-26T18:16:52.669Z,47.94
2018-09-26T18:19:25.340Z,47.09
2018-09-26T18:21:58.208Z,47.25
2018-09-26T18:24:31.648Z,48.25
2018-09-26T18:27:04.618Z,47.04
2018-09-26T18:29:37.564Z,47.35
2018-09-26T18:32:09.827Z,48.34
2018-09-26T18:34:47.112Z,47.84
2018-09-26T18:37:19.875Z,49.04
2018-09-26T18:39:51.511Z,48.28
2018-09-26T18:42:24.410Z,48.02
2018-09-26T18:44:56.920Z,48.91
2018-09-26T18:47:30.668Z,48.83
2018-09-26T18:50:03.354Z,49.75
2018-09-26T18:52:36.289Z,49.89
2018-09-26T18:55:08.725Z,49.91
2018-09-26T18:57:41.338Z,49.53
2018-09-26T19:00:14.225Z,49.65
2018-09-26T19:02:46.852Z,49.52
2018-09-26T19:05:19.581Z,49.18
2018-09-26T19:07:53.344Z,48.76
2018-09-26T19:10:27.426Z,48.83
2018-09-26T19:13:00.379Z,48.78
2018-09-26T19:15:31.133Z,48.50
2018-09-26T19:18:01.934Z,48.66
2018-09-26T19:20:34.097Z,48.05
2018-09-26T19:23:06.914Z,48.52
2018-09-26T19:25:39.878Z,49.07
2018-09-26T19:28:12.149Z,48.98
2018-09-26T19:30:44.369Z,48.56
2018-09-26T19:33:14.277Z,50.09
2018-09-26T19:35:44.433Z,50.15
2018-09-26T19:38:15.741Z,50.01
2018-09-26T19:40:47.818Z,49.73
2018-09-26T19:43:18.660Z,50.94
2018-09-26T19:45:48.907Z,51.55
2018-09-26T19:48:19.738Z,51.91
2018-09-26T19:50:49.321Z,52.20
2018-09-26T19:53:19.868Z,52.16
2018-09-26T19:55:49.922Z,52.46
2018-09-26T19:58:22.255Z,52.91
2018-09-26T20:00:54.064Z,53.67
2018-09-26T20:03:26.441Z,53.51
2018-09-26T20:05:58.990Z,53.05
2018-09-26T20:08:32.382Z,53.81
2018-09-26T20:11:06.122Z,54.03
2018-09-26T20:13:38.894Z,54.28
2018-09-26T20:16:11.572Z,54.37
2018-09-26T20:18:43.279Z,54.31
2018-09-26T20:21:16.964Z,54.06
2018-09-26T20:23:50.080Z,53.86
2018-09-26T20:26:19.914Z,52.52
2018-09-26T20:28:53.412Z,53.36
2018-09-26T20:31:27.990Z,53.29
2018-09-26T20:33:59.113Z,53.03
2018-09-26T20:36:31.764Z,52.47
2018-09-26T20:39:06.138Z,52.33
2018-09-26T20:41:37.420Z,52.47
2018-09-26T20:44:10.441Z,52.13
2018-09-26T20:46:43.484Z,52.36
2018-09-26T20:49:16.366Z,52.25
2018-09-26T20:51:50.143Z,52.01
2018-09-26T20:54:23.224Z,51.58
2018-09-26T20:56:56.687Z,52.50
2018-09-26T20:59:28.602Z,52.75
2018-09-26T21:02:01.296Z,52.90
2018-09-26T21:04:31.669Z,53.85
2018-09-26T21:07:05.420Z,54.33
2018-09-26T21:09:38.806Z,54.02
2018-09-26T21:12:12.488Z,53.27
2018-09-26T21:14:43.155Z,53.15
2018-09-26T21:17:16.011Z,53.53
2018-09-26T21:19:49.162Z,53.98
2018-09-26T21:22:22.450Z,53.84
2018-09-26T21:24:55.929Z,54.69
2018-09-26T21:27:28.818Z,55.03
2018-09-26T21:30:02.358Z,56.13
2018-09-26T21:32:33.661Z,56.27
2018-09-26T21:35:06.507Z,55.33
2018-09-26T21:37:39.543Z,55.18
2018-09-26T21:40:12.876Z,55.68
2018-09-26T21:42:46.605Z,55.78
2018-09-26T21:45:20.139Z,54.82
2018-09-26T21:47:53.995Z,55.06
2018-09-26T21:50:27.422Z,54.46
2018-09-26T21:53:01.207Z,54.40
2018-09-26T21:55:34.549Z,54.46
2018-09-26T21:58:07.725Z,53.82
2018-09-26T22:01:43.783Z,54.31
2018-09-26T22:04:13.496Z,54.44
2018-09-26T22:06:47.091Z,54.77
2018-09-26T22:09:20.417Z,56.15
2018-09-26T22:11:53.703Z,55.92
2018-09-26T22:14:27.050Z,56.07
2018-09-26T22:17:00.510Z,56.48
2018-09-26T22:19:34.233Z,56.36
2018-09-26T22:22:06.808Z,56.82
2018-09-26T22:24:40.137Z,55.75
2018-09-26T22:27:12.501Z,55.45
2018-09-26T22:29:44.134Z,55.46
2018-09-26T22:32:13.670Z,55.13
2018-09-26T22:34:43.263Z,54.94
2018-09-26T22:37:12.791Z,55.04
2018-09-26T22:39:42.334Z,54.41
2018-09-26T22:42:11.843Z,55.24
2018-09-26T22:44:41.413Z,55.52
2018-09-26T22:47:14.810Z,56.33
2018-09-26T22:49:48.209Z,55.83
2018-09-26T22:52:21.185Z,56.73
2018-09-26T22:54:54.909Z,56.48
2018-09-26T22:57:28.594Z,57.71
2018-09-26T23:00:00.250Z,57.30
2018-09-26T23:02:29.802Z,57.60
2018-09-26T23:04:59.378Z,57.66
2018-09-26T23:07:33.022Z,57.97
2018-09-26T23:10:05.998Z,58.73
2018-09-26T23:12:39.303Z,58.98
2018-09-26T23:15:10.350Z,59.77
2018-09-26T23:17:43.152Z,59.04
2018-09-26T23:20:17.078Z,59.17
2018-09-26T23:22:50.608Z,59.96
2018-09-26T23:25:24.638Z,59.73
2018-09-26T23:27:59.062Z,59.66
2018-09-26T23:30:28.718Z,59.93
2018-09-26T23:32:58.260Z,60.44
2018-09-26T23:35:30.182Z,60.78
2018-09-26T23:38:03.732Z,61.24
2018-09-26T23:40:37.643Z,60.70
2018-09-26T23:43:10.966Z,61.81
2018-09-26T23:45:44.919Z,61.81
2018-09-26T23:48:18.359Z,61.71
2018-09-26T23:50:51.248Z,61.77
2018-09-26T23:53:24.926Z,62.19
2018-09-26T23:55:58.176Z,62.37
2018-09-26T23:58:31.476Z,62.48
